Time;durP1;ratioP1;P1;durP2;ratioP2;P2;SDS_P1;SDS_P2;PMS_P1;PMS_P2;Temp;Humidity;BMP_temperature;BMP_pressure;BME280_temperature;BME280_humidity;BME280_pressure;Samples;Min_cycle;Max_cycle;Signal;HPM_P1;HPM_P2
2021/01/12 00:02:24;;;;;;;2.95;2.38;;;;;;;20.93;44.42;100760.44;5017122;28;20468;-83
2021/01/12 00:04:51;;;;;;;3.15;2.30;;;;;;;21.00;44.23;100754.91;5017091;28;20562;-81
2021/01/12 00:07:24;;;;;;;3.55;1.80;;;;;;;21.00;44.34;100752.13;5016860;28;20095;-82
2021/01/12 00:09:50;;;;;;;2.80;2.15;;;;;;;21.12;43.89;100755.81;5016536;28;20033;-81
2021/01/12 00:12:18;;;;;;;2.17;1.73;;;;;;;21.16;43.74;100751.06;5034502;28;20075;-82
2021/01/12 00:14:44;;;;;;;2.40;1.48;;;;;;;21.14;43.88;100748.69;5017099;28;20052;-82
2021/01/12 00:17:10;;;;;;;2.33;0.93;;;;;;;20.91;44.32;100750.88;5016808;28;20122;-82
2021/01/12 00:19:37;;;;;;;2.35;1.35;;;;;;;20.85;44.48;100741.28;5034116;28;20075;-82
2021/01/12 00:22:07;;;;;;;1.50;1.20;;;;;;;20.88;44.48;100751.63;5034337;28;20021;-81
2021/01/12 00:24:32;;;;;;;;;;;;;;;20.82;44.44;100753.97;5034668;28;20112;-81
2021/01/12 00:26:57;;;;;;;1.00;0.70;;;;;;;20.98;43.84;100748.94;5034379;28;20055;-81
2021/01/12 00:29:23;;;;;;;1.25;0.63;;;;;;;20.97;43.72;100754.91;5016007;28;20033;-82
2021/01/12 00:31:49;;;;;;;0.95;0.70;;;;;;;21.04;43.65;100747.41;5016487;28;20025;-82
2021/01/12 00:34:15;;;;;;;2.80;1.20;;;;;;;21.00;43.67;100768.78;5016233;28;20021;-80
2021/01/12 00:36:51;;;;;;;0.70;0.70;;;;;;;20.93;43.51;100763.22;5016084;28;20033;-80
2021/01/12 00:39:21;;;;;;;0.60;0.60;;;;;;;20.88;43.59;100766.31;5033624;28;20036;-80
2021/01/12 00:41:57;;;;;;;0.95;0.40;;;;;;;20.96;43.43;100765.22;5033593;28;20063;-81
2021/01/12 00:44:24;;;;;;;2.00;0.90;;;;;;;20.88;43.54;100768.31;5034035;28;20472;-80
2021/01/12 00:46:50;;;;;;;0.63;0.60;;;;;;;20.88;43.55;100771.88;5033638;28;20029;-81
2021/01/12 00:49:18;;;;;;;2.22;1.80;;;;;;;20.29;43.92;100781.91;5015934;28;20057;-80
2021/01/12 00:51:44;;;;;;;2.65;1.70;;;;;;;20.21;44.23;100783.00;5015581;28;20057;-80
2021/01/12 00:54:15;;;;;;;3.33;1.70;;;;;;;20.11;44.11;100784.47;5015891;28;20068;-80
2021/01/12 00:56:40;;;;;;;2.50;1.63;;;;;;;20.10;43.83;100780.09;5033093;28;20025;-81
2021/01/12 00:59:06;;;;;;;2.75;1.80;;;;;;;20.28;43.24;100785.06;5015868;28;20036;-82
2021/01/12 01:01:33;;;;;;;2.30;1.45;;;;;;;20.34;42.92;100789.09;5016183;28;20483;-82
2021/01/12 01:03:59;;;;;;;3.60;1.75;;;;;;;20.37;42.57;100794.69;5015865;28;20112;-82
2021/01/12 01:06:25;;;;;;;2.85;1.63;;;;;;;20.31;42.81;100803.72;5033352;28;20519;-82
2021/01/12 01:08:51;;;;;;;3.00;1.55;;;;;;;20.20;43.08;100803.59;5048384;28;20025;-82
2021/01/12 01:11:17;;;;;;;5.95;2.28;;;;;;;20.39;42.56;100797.88;5015127;28;20053;-81
2021/01/12 01:13:43;;;;;;;2.67;1.60;;;;;;;20.40;42.51;100796.72;5033308;28;20017;-83
2021/01/12 01:16:09;;;;;;;2.47;1.92;;;;;;;20.39;42.51;100803.44;5048888;28;20441;-82
2021/01/12 01:18:35;;;;;;;1.80;1.20;;;;;;;20.38;42.58;100807.38;5048236;28;20484;-82
2021/01/12 01:21:00;;;;;;;3.05;1.50;;;;;;;20.29;42.69;100809.66;5015566;28;20383;-81
2021/01/12 01:23:26;;;;;;;1.70;1.35;;;;;;;20.17;42.83;100805.13;5033282;28;20021;-82
2021/01/12 01:25:52;;;;;;;3.40;1.52;;;;;;;20.04;43.14;100803.78;5015695;28;20053;-82
2021/01/12 01:28:20;;;;;;;3.17;1.33;;;;;;;20.10;43.11;100807.00;5015405;28;20107;-82
2021/01/12 01:30:47;;;;;;;1.98;1.30;;;;;;;20.13;42.87;100811.81;5015466;28;20047;-82
2021/01/12 01:33:12;;;;;;;1.48;1.30;;;;;;;20.06;42.95;100806.19;5015753;28;20025;-81
2021/01/12 01:35:38;;;;;;;3.15;1.42;;;;;;;20.08;42.68;100821.25;5015447;28;20502;-82
2021/01/12 01:38:04;;;;;;;3.17;1.42;;;;;;;20.09;42.61;100819.28;5014971;28;20563;-81
2021/01/12 01:40:30;;;;;;;2.97;1.38;;;;;;;20.07;42.60;100814.13;5015361;28;20022;-82
2021/01/12 01:42:56;;;;;;;3.42;1.40;;;;;;;20.00;42.82;100827.88;5031823;28;20037;-81
2021/01/12 01:45:24;;;;;;;1.38;1.20;;;;;;;20.03;42.69;100824.38;5015342;28;20033;-82
2021/01/12 01:47:50;;;;;;;3.35;1.30;;;;;;;20.08;42.66;100820.47;5031865;28;20025;-82
2021/01/12 01:50:18;;;;;;;3.67;1.98;;;;;;;20.10;42.49;100824.47;5015154;28;20084;-82
2021/01/12 01:52:48;;;;;;;4.30;1.75;;;;;;;20.06;42.54;100811.72;5032645;28;20129;-81
2021/01/12 01:55:15;;;;;;;2.45;1.50;;;;;;;20.12;42.27;100818.56;5014946;28;20561;-81
2021/01/12 01:57:41;;;;;;;2.38;1.48;;;;;;;20.14;42.39;100827.28;5015253;28;20029;-82
2021/01/12 02:00:08;;;;;;;1.95;1.23;;;;;;;20.16;42.37;100836.03;5032802;28;20029;-82
2021/01/12 02:02:41;;;;;;;1.48;1.05;;;;;;;20.15;42.56;100831.66;5032828;28;20029;-82
2021/01/12 02:05:11;;;;;;;2.97;1.27;;;;;;;20.14;42.31;100830.84;5048242;28;20025;-81
2021/01/12 02:07:42;;;;;;;1.85;1.02;;;;;;;20.13;42.18;100839.56;5048229;28;20143;-82
2021/01/12 02:10:10;;;;;;;1.67;0.88;;;;;;;20.10;42.25;100838.34;5015058;28;20450;-81
2021/01/12 02:12:43;;;;;;;2.78;0.75;;;;;;;20.11;42.18;100839.16;5032766;28;20029;-82
2021/01/12 02:15:11;;;;;;;2.42;1.27;;;;;;;20.11;42.26;100841.91;5032704;28;20109;-81
2021/01/12 02:17:37;;;;;;;1.30;0.80;;;;;;;20.12;42.15;100854.59;5032901;28;20473;-82
2021/01/12 02:20:03;;;;;;;4.45;1.00;;;;;;;20.13;42.08;100850.66;5048279;28;20044;-81
2021/01/12 02:22:29;;;;;;;2.03;1.08;;;;;;;20.15;42.10;100854.66;5035909;28;20025;-81
2021/01/12 02:24:55;;;;;;;1.33;0.70;;;;;;;20.14;41.92;100855.81;5036435;28;20025;-82
2021/01/12 02:27:23;;;;;;;1.38;0.98;;;;;;;20.12;42.06;100860.16;5018774;28;20029;-81
2021/01/12 02:29:52;;;;;;;0.70;0.70;;;;;;;20.13;42.04;100864.53;5036256;28;20060;-82
2021/01/12 02:32:21;;;;;;;1.90;1.03;;;;;;;20.12;42.03;100871.25;5018706;28;20112;-82
2021/01/12 02:34:48;;;;;;;3.00;0.90;;;;;;;20.16;41.88;100874.88;5036347;28;20396;-81
2021/01/12 02:37:17;;;;;;;1.40;0.93;;;;;;;20.14;42.02;100885.53;5035880;28;20044;-82
2021/01/12 02:39:44;;;;;;;1.02;0.90;;;;;;;20.14;41.99;100891.09;5036250;28;20025;-82
2021/01/12 02:42:14;;;;;;;1.23;0.82;;;;;;;20.14;42.04;100885.53;5018546;28;20025;-83
2021/01/12 02:44:40;;;;;;;2.90;1.02;;;;;;;20.15;41.82;100893.47;5018381;28;20029;-82
2021/01/12 02:47:06;;;;;;;0.75;0.70;;;;;;;20.13;41.97;100897.81;5036265;28;20476;-81
2021/01/12 02:49:31;;;;;;;0.80;0.80;;;;;;;20.12;41.99;100896.22;5018109;28;20527;-82
2021/01/12 02:51:57;;;;;;;1.23;0.88;;;;;;;20.12;41.89;100899.00;5018431;28;20527;-81
2021/01/12 02:54:22;;;;;;;1.67;0.70;;;;;;;20.17;41.71;100901.44;5034745;28;20086;-81
2021/01/12 02:56:48;;;;;;;2.65;0.98;;;;;;;20.13;42.02;100906.13;5018022;28;20434;-81
2021/01/12 02:59:14;;;;;;;3.00;1.40;;;;;;;20.05;42.22;100915.53;5035534;28;20079;-81
2021/01/12 03:01:39;;;;;;;1.52;0.98;;;;;;;20.08;41.87;100907.25;5017978;28;20116;-81
2021/01/12 03:04:05;;;;;;;0.88;0.70;;;;;;;20.09;41.78;100916.38;5035823;28;20025;-81
2021/01/12 03:06:30;;;;;;;1.67;0.90;;;;;;;20.06;41.92;100917.91;5035760;28;20029;-82
2021/01/12 03:08:56;;;;;;;1.17;0.80;;;;;;;20.09;41.71;100913.59;5018001;28;20383;-81
2021/01/12 03:11:21;;;;;;;1.42;0.75;;;;;;;20.04;41.69;100908.38;5051155;28;20032;-81
2021/01/12 03:13:47;;;;;;;1.55;0.68;;;;;;;20.04;41.81;100911.16;5017914;28;20550;-82
2021/01/12 03:16:13;;;;;;;1.30;0.73;;;;;;;20.04;41.97;100919.47;5018046;28;20049;-82
2021/01/12 03:18:38;;;;;;;2.30;0.77;;;;;;;20.03;41.87;100931.75;5001568;28;20124;-82
2021/01/12 03:21:05;;;;;;;0.70;0.70;;;;;;;19.98;41.83;100927.31;5017808;28;20071;-82
2021/01/12 03:23:30;;;;;;;0.57;0.43;;;;;;;20.00;41.72;100929.69;5035498;28;20022;-82
2021/01/12 03:25:56;;;;;;;1.75;0.65;;;;;;;19.98;41.88;100932.06;5017769;28;20028;-81
2021/01/12 03:28:21;;;;;;;0.95;0.70;;;;;;;19.93;41.84;100930.38;5035436;28;20033;-82
2021/01/12 03:30:47;;;;;;;3.05;0.80;;;;;;;19.91;41.84;100932.75;5017519;28;20096;-82
2021/01/12 03:33:13;;;;;;;1.75;0.90;;;;;;;19.90;41.87;100929.16;5034260;28;20025;-81
2021/01/12 03:35:39;;;;;;;4.00;0.80;;;;;;;19.85;41.77;100935.03;5017560;28;20053;-82
2021/01/12 03:38:04;;;;;;;1.15;0.85;;;;;;;19.87;41.77;100946.53;5034906;28;20052;-81
2021/01/12 03:40:30;;;;;;;1.13;0.70;;;;;;;19.89;41.59;100952.53;5017458;28;20033;-81
2021/01/12 03:42:55;;;;;;;1.10;0.60;;;;;;;19.84;41.94;100944.50;5017365;28;20025;-81
2021/01/12 03:45:24;;;;;;;0.85;0.70;;;;;;;19.81;41.55;100947.25;5033906;28;20083;-82
2021/01/12 03:47:50;;;;;;;0.80;0.80;;;;;;;19.86;41.84;100950.47;5017248;28;20492;-82
2021/01/12 03:50:16;;;;;;;1.17;0.50;;;;;;;19.80;41.62;100953.94;5017246;28;20018;-82
2021/01/12 03:52:41;;;;;;;1.67;0.80;;;;;;;19.86;41.65;100958.00;5017375;28;20031;-82
2021/01/12 03:55:07;;;;;;;0.93;0.50;;;;;;;19.83;41.55;100958.75;5017268;28;20108;-81
2021/01/12 03:57:33;;;;;;;4.82;1.20;;;;;;;19.74;41.60;100960.97;5000843;28;20051;-82
2021/01/12 03:59:59;;;;;;;1.00;0.82;;;;;;;19.73;41.88;100964.94;5017057;28;20032;-82
2021/01/12 04:02:25;;;;;;;0.65;0.60;;;;;;;19.70;41.80;100971.19;5034845;28;20086;-81
2021/01/12 04:04:51;;;;;;;3.38;0.90;;;;;;;19.66;41.83;100977.47;5016684;28;20025;-82
2021/01/12 04:07:16;;;;;;;0.60;0.60;;;;;;;19.62;41.83;100975.81;5050130;28;20029;-82
2021/01/12 04:09:42;;;;;;;0.75;0.68;;;;;;;19.60;41.75;100980.94;5034416;28;20036;-82
2021/01/12 04:12:08;;;;;;;1.85;0.95;;;;;;;19.59;41.84;100984.88;5034518;28;20025;-81
2021/01/12 04:14:34;;;;;;;1.42;0.80;;;;;;;19.50;42.02;100985.09;5016884;28;20113;-83
2021/01/12 04:16:59;;;;;;;1.13;0.90;;;;;;;19.64;41.56;100992.88;5034434;28;20113;-83
2021/01/12 04:19:25;;;;;;;1.98;0.90;;;;;;;19.67;41.30;100986.59;5034317;28;20025;-82
2021/01/12 04:21:51;;;;;;;1.08;0.77;;;;;;;19.66;41.55;100996.88;5016684;28;20025;-82
2021/01/12 04:24:16;;;;;;;1.35;1.05;;;;;;;19.59;41.60;100987.63;5016574;28;20443;-81
2021/01/12 04:26:42;;;;;;;3.22;1.25;;;;;;;19.55;41.66;100990.31;5016613;28;20026;-82
2021/01/12 04:29:07;;;;;;;4.10;1.67;;;;;;;19.54;41.67;100985.94;5016391;28;20108;-81
2021/01/12 04:31:33;;;;;;;3.15;1.23;;;;;;;19.57;41.53;100987.19;5031795;28;20060;-81
2021/01/12 04:33:59;;;;;;;3.53;1.42;;;;;;;19.48;41.73;100997.69;5034180;28;20033;-82
2021/01/12 04:36:25;;;;;;;2.42;0.95;;;;;;;19.49;41.70;100997.31;5016575;28;20036;-81
2021/01/12 04:38:51;;;;;;;1.85;1.17;;;;;;;19.49;41.44;100990.97;5016121;28;20480;-82
2021/01/12 04:41:17;;;;;;;2.40;1.08;;;;;;;19.71;41.01;100979.13;5034033;28;20036;-82
2021/01/12 04:43:42;;;;;;;2.70;1.20;;;;;;;19.52;41.51;100991.03;5016042;28;20025;-81
2021/01/12 04:46:08;;;;;;;2.38;1.10;;;;;;;19.50;41.39;100990.63;5049286;28;20124;-82
2021/01/12 04:48:33;;;;;;;1.30;1.10;;;;;;;19.48;41.59;100997.69;5016212;28;20468;-82
2021/01/12 04:51:10;;;;;;;2.25;1.20;;;;;;;19.38;41.56;100997.13;5033979;28;20033;-81
2021/01/12 04:53:46;;;;;;;2.13;1.08;;;;;;;19.43;41.47;101000.78;5049310;28;20454;-81
2021/01/12 04:56:15;;;;;;;3.63;1.67;;;;;;;19.45;41.49;101004.75;5033692;28;20129;-82
2021/01/12 04:58:43;;;;;;;1.33;1.05;;;;;;;19.45;41.48;101015.84;5033631;28;20506;-81
2021/01/12 05:01:17;;;;;;;1.10;1.00;;;;;;;19.40;41.23;101014.16;5049057;28;20136;-83
2021/01/12 05:03:47;;;;;;;4.25;1.73;;;;;;;19.44;41.21;101021.78;5034330;28;20498;-81
2021/01/12 05:06:14;;;;;;;2.03;1.42;;;;;;;19.37;41.43;101014.91;5012965;28;20029;-81
2021/01/12 05:08:42;;;;;;;1.52;1.30;;;;;;;19.36;41.46;101026.38;5033579;28;20030;-81
2021/01/12 05:11:08;;;;;;;2.40;1.50;;;;;;;19.37;41.38;101031.53;5015932;28;20036;-81
2021/01/12 05:13:35;;;;;;;8.43;1.55;;;;;;;19.35;41.57;101028.34;5015628;28;20029;-82
2021/01/12 05:16:07;;;;;;;5.53;1.90;;;;;;;19.21;41.28;101039.13;5016046;28;20399;-82
2021/01/12 05:18:38;;;;;;;2.92;1.63;;;;;;;19.24;41.54;101035.63;5033365;28;20128;-81
2021/01/12 05:21:06;;;;;;;3.10;1.52;;;;;;;19.30;41.39;101030.59;5015782;28;20040;-82
2021/01/12 05:23:47;;;;;;;5.53;2.20;;;;;;;19.18;41.60;101034.28;5015682;28;20128;-82
2021/01/12 05:26:18;;;;;;;3.03;1.48;;;;;;;19.13;41.57;101037.38;5016560;28;20117;-82
2021/01/12 05:28:45;;;;;;;3.38;1.85;;;;;;;19.04;41.82;101043.13;5033206;28;20025;-82
2021/01/12 05:31:12;;;;;;;2.80;2.00;;;;;;;19.02;41.48;101050.19;4995983;28;20043;-82
2021/01/12 05:33:42;;;;;;;3.03;1.90;;;;;;;19.03;41.44;101043.47;4992631;28;20069;-81
2021/01/12 05:36:09;;;;;;;5.43;1.92;;;;;;;18.98;41.65;101049.31;4993717;28;20030;-82
2021/01/12 05:38:35;;;;;;;3.60;2.15;;;;;;;18.91;41.78;101060.22;4993822;28;20121;-81
2021/01/12 05:41:02;;;;;;;2.58;1.75;;;;;;;18.79;41.96;101064.72;4993580;28;20030;-82
2021/01/12 05:43:46;;;;;;;3.03;2.17;;;;;;;18.72;41.88;101066.50;4993878;28;20027;-82
2021/01/12 05:46:14;;;;;;;5.10;1.58;;;;;;;17.90;43.11;101075.50;4992606;28;20500;-82
2021/01/12 05:48:41;;;;;;;8.90;1.65;;;;;;;17.38;43.44;101084.69;4993571;28;20030;-81
2021/01/12 05:51:09;;;;;;;7.90;1.90;;;;;;;17.56;42.56;101088.78;4992453;28;20085;-82
2021/01/12 05:54:02;;;;;;;7.85;2.25;;;;;;;17.69;41.92;101092.31;4993738;28;20034;-81
2021/01/12 05:56:29;;;;;;;4.20;1.67;;;;;;;17.27;42.83;101102.91;5010510;28;20031;-82
2021/01/12 05:58:56;;;;;;;7.80;1.80;;;;;;;17.63;41.71;101099.22;5015210;28;20031;-82
2021/01/12 06:01:25;;;;;;;7.78;1.77;;;;;;;17.72;41.36;101099.91;4999154;28;20025;-82
2021/01/12 06:03:51;;;;;;;7.10;1.35;;;;;;;17.62;41.32;101101.19;5000122;28;20030;-82
2021/01/12 06:06:18;;;;;;;10.73;2.60;;;;;;;17.67;41.33;101102.88;5000126;28;20022;-81
2021/01/12 06:08:48;;;;;;;9.40;2.15;;;;;;;17.66;41.25;101102.09;4998956;28;20026;-82
2021/01/12 06:11:18;;;;;;;10.35;2.72;;;;;;;17.53;41.74;101100.50;4998775;28;20022;-81
2021/01/12 06:13:53;;;;;;;7.43;2.03;;;;;;;17.44;41.80;101114.47;4998572;28;20045;-81
2021/01/12 06:16:23;;;;;;;7.93;2.05;;;;;;;17.43;41.61;101110.09;5015083;28;20381;-80
2021/01/12 06:19:18;;;;;;;5.40;2.67;;;;;;;17.30;41.69;101118.78;4998234;28;20030;-80
2021/01/12 06:21:55;;;;;;;4.60;1.60;;;;;;;17.13;42.21;101117.09;5000872;28;20657;-80
2021/01/12 06:24:42;;;;;;;5.78;1.45;;;;;;;17.43;41.38;101114.84;5000264;28;20391;-81
2021/01/12 06:27:09;;;;;;;5.57;1.98;;;;;;;17.21;41.76;101124.44;4998702;28;20098;-83
2021/01/12 06:29:35;;;;;;;8.55;1.95;;;;;;;17.33;41.35;101121.66;5012845;28;20042;-83
2021/01/12 06:32:01;;;;;;;10.07;2.20;;;;;;;17.41;41.03;101122.66;5036249;28;20392;-82
2021/01/12 06:34:28;;;;;;;10.43;1.73;;;;;;;17.67;40.52;101122.22;5033699;28;20391;-83
2021/01/12 06:36:56;;;;;;;14.82;3.03;;;;;;;17.54;40.67;101137.25;5034763;28;20032;-83
2021/01/12 06:39:24;;;;;;;7.75;2.75;;;;;;;17.38;41.20;101143.53;5051087;28;20033;-83
2021/01/12 06:41:50;;;;;;;8.98;2.20;;;;;;;17.46;40.97;101142.56;5059163;28;20032;-82
2021/01/12 06:44:25;;;;;;;10.70;2.90;;;;;;;17.33;41.26;101149.28;5056494;28;20421;-82
2021/01/12 06:46:53;;;;;;;10.85;2.03;;;;;;;17.33;41.06;101154.00;5021856;28;20069;-83
2021/01/12 06:49:27;;;;;;;5.63;2.05;;;;;;;17.19;41.40;101160.69;5039314;28;20432;-81
2021/01/12 06:52:00;;;;;;;6.70;1.88;;;;;;;17.37;40.83;101163.19;5021260;28;20036;-81
2021/01/12 06:54:39;;;;;;;12.05;2.45;;;;;;;17.46;40.69;101166.63;5021369;28;20029;-82
2021/01/12 06:57:07;;;;;;;6.30;1.90;;;;;;;17.57;40.58;101178.00;5005177;28;20033;-82
2021/01/12 06:59:35;;;;;;;12.13;3.53;;;;;;;17.56;40.42;101174.44;5021182;28;20044;-80
2021/01/12 07:02:04;;;;;;;7.90;2.22;;;;;;;17.59;40.25;101182.00;5022021;28;20061;-82
2021/01/12 07:04:30;;;;;;;10.60;2.27;;;;;;;17.47;40.56;101184.81;5021635;28;20040;-81
2021/01/12 07:07:01;;;;;;;10.10;2.92;;;;;;;17.48;40.42;101203.81;5020657;28;20033;-86
2021/01/12 07:09:27;;;;;;;10.23;2.67;;;;;;;17.55;40.29;101211.50;5018756;28;20049;-85
2021/01/12 07:12:07;;;;;;;10.88;2.03;;;;;;;17.47;39.85;101216.00;5003076;28;20492;-87
2021/01/12 07:14:42;;;;;;;;;;;;;;;17.23;40.04;101213.28;5032644;28;20114;-87
2021/01/12 07:17:08;;;;;;;13.75;2.08;;;;;;;17.38;40.19;101220.03;5039330;28;19917;-87
2021/01/12 07:19:35;;;;;;;20.48;2.97;;;;;;;17.23;40.23;101226.25;5030173;28;20091;-86
2021/01/12 07:22:11;;;;;;;12.82;2.30;;;;;;;17.12;40.11;101228.69;5019095;28;20080;-86
2021/01/12 07:24:38;;;;;;;11.25;1.95;;;;;;;16.99;40.68;101227.88;5019313;28;20033;-86
2021/01/12 07:27:11;;;;;;;8.20;2.08;;;;;;;17.24;39.98;101230.66;5019352;28;20052;-86
2021/01/12 07:29:53;;;;;;;7.07;2.42;;;;;;;17.18;39.66;101238.38;5018983;28;20080;-88
2021/01/12 07:32:32;;;;;;;4.88;1.35;;;;;;;17.19;39.86;101262.88;5018893;28;20033;-85
2021/01/12 07:35:11;;;;;;;8.80;2.28;;;;;;;17.21;39.96;101245.94;5018984;28;20104;-88
2021/01/12 07:37:41;;;;;;;9.77;2.70;;;;;;;17.30;39.81;101245.81;5018835;28;20026;-94
2021/01/12 07:40:10;;;;;;;12.00;2.58;;;;;;;17.33;39.81;101240.44;5018986;28;20037;-84
2021/01/12 07:42:48;;;;;;;10.23;1.77;;;;;;;17.30;39.67;101238.34;5018301;28;20041;-90
2021/01/12 07:45:16;;;;;;;7.63;2.92;;;;;;;17.39;39.76;101250.09;5018699;28;20033;-87
2021/01/12 07:47:41;;;;;;;8.80;2.70;;;;;;;17.35;40.01;101251.13;5036219;28;20107;-90
2021/01/12 07:50:08;;;;;;;9.75;1.90;;;;;;;17.29;39.82;101261.59;5018901;28;20092;-86
2021/01/12 07:52:33;;;;;;;12.75;2.45;;;;;;;17.28;39.95;101259.97;5018580;28;20432;-86
2021/01/12 07:54:59;;;;;;;7.35;1.58;;;;;;;17.34;39.45;101266.88;5019104;28;20216;-86
2021/01/12 07:57:25;;;;;;;10.38;1.83;;;;;;;17.28;39.65;101270.22;5018741;28;20476;-93
2021/01/12 07:59:52;;;;;;;7.88;2.17;;;;;;;17.21;39.75;101270.78;5002296;28;20124;-88
2021/01/12 08:02:18;;;;;;;5.10;2.17;;;;;;;17.28;39.24;101284.84;5018214;28;20685;-91
2021/01/12 08:04:44;;;;;;;9.82;2.17;;;;;;;17.16;39.30;101279.31;5018801;28;20029;-93
2021/01/12 08:07:21;;;;;;;6.47;1.80;;;;;;;17.09;39.79;101296.47;5002371;28;20038;-88
2021/01/12 08:09:46;;;;;;;11.88;2.30;;;;;;;17.14;39.29;101304.50;5002588;28;20084;-92
2021/01/12 08:12:13;;;;;;;9.30;2.05;;;;;;;16.94;39.90;101308.16;5018602;28;20026;-86
2021/01/12 08:14:39;;;;;;;12.57;2.50;;;;;;;17.01;39.52;101305.66;5018770;28;20033;-88
2021/01/12 08:17:05;;;;;;;7.97;3.05;;;;;;;17.08;39.08;101300.38;5018675;28;20559;-93
2021/01/12 08:19:31;;;;;;;11.90;2.97;;;;;;;17.01;39.45;101308.41;5017657;28;20034;-88
2021/01/12 08:21:57;;;;;;;13.02;1.98;;;;;;;16.92;39.32;101319.53;5002269;28;20034;-90
2021/01/12 08:24:25;;;;;;;12.50;3.03;;;;;;;16.94;39.48;101321.97;5002199;28;20029;-88
2021/01/12 08:26:53;;;;;;;13.60;2.50;;;;;;;17.02;39.25;101311.97;5018007;28;20032;-92
2021/01/12 08:29:25;;;;;;;10.00;2.55;;;;;;;16.91;39.50;101308.84;5051291;28;20033;-93
2021/01/12 08:32:01;;;;;;;8.70;1.90;;;;;;;16.94;39.31;101321.97;5015840;28;20144;-91
2021/01/12 08:34:30;;;;;;;9.40;1.83;;;;;;;16.97;39.06;101326.81;5009586;28;20036;-90
2021/01/12 08:36:57;;;;;;;5.03;2.15;;;;;;;16.92;39.35;101340.81;5017995;28;20041;-90
2021/01/12 08:39:24;;;;;;;11.00;2.60;;;;;;;16.82;39.71;101338.50;5017449;28;20037;-92
2021/01/12 08:41:51;;;;;;;9.65;2.63;;;;;;;16.78;39.70;101334.81;5017403;28;20080;-86
2021/01/12 08:44:19;;;;;;;16.17;2.65;;;;;;;16.84;39.38;101339.75;5017777;28;20028;-86
2021/01/12 08:46:45;;;;;;;12.30;2.58;;;;;;;16.52;40.20;101346.06;5020974;28;20025;-87
2021/01/12 08:49:11;;;;;;;11.02;2.88;;;;;;;16.77;39.60;101341.47;5017074;28;20029;-87
2021/01/12 08:51:37;;;;;;;9.85;3.30;;;;;;;16.82;39.74;101355.06;5015354;28;20031;-85
2021/01/12 08:54:03;;;;;;;8.02;2.67;;;;;;;16.85;39.57;101373.69;5017623;28;20034;-86
2021/01/12 08:56:28;;;;;;;12.85;3.00;;;;;;;16.78;39.62;101362.41;5017181;28;20032;-86
2021/01/12 08:59:05;;;;;;;25.05;4.32;;;;;;;16.83;39.76;101367.69;5016303;28;20029;-82
2021/01/12 09:01:32;;;;;;;20.42;5.30;;;;;;;16.81;39.93;101372.75;5015200;28;20022;-79
2021/01/12 09:04:10;;;;;;;13.98;4.85;;;;;;;16.80;39.96;101380.22;5015447;28;20053;-75
2021/01/12 09:06:36;;;;;;;12.35;3.40;;;;;;;16.87;39.52;101391.53;5032602;28;20507;-84
2021/01/12 09:09:07;;;;;;;11.68;3.72;;;;;;;16.74;40.08;101395.38;5015409;28;20025;-74
2021/01/12 09:11:36;;;;;;;8.50;2.50;;;;;;;16.74;39.81;101394.56;5014522;28;20029;-75
2021/01/12 09:14:07;;;;;;;10.07;2.30;;;;;;;16.57;40.09;101398.28;5015175;28;20388;-74
2021/01/12 09:16:33;;;;;;;8.60;2.42;;;;;;;16.97;39.50;101406.84;5032545;28;20064;-75
2021/01/12 09:18:59;;;;;;;10.25;2.22;;;;;;;16.94;39.38;101407.53;5014456;28;20033;-75
2021/01/12 09:21:25;;;;;;;5.20;2.05;;;;;;;16.89;39.47;101407.75;5015142;28;20025;-75
2021/01/12 09:23:50;;;;;;;10.18;2.05;;;;;;;16.70;39.75;101405.50;5032714;28;20025;-74
2021/01/12 09:26:20;;;;;;;9.88;2.22;;;;;;;16.88;39.35;101409.69;5031687;28;20029;-75
2021/01/12 09:28:45;;;;;;;11.95;2.05;;;;;;;16.83;39.58;101415.41;5015019;28;20116;-76
2021/01/12 09:31:17;;;;;;;10.45;2.78;;;;;;;16.67;39.43;101424.63;5031609;28;20129;-75
2021/01/12 09:33:49;;;;;;;6.60;2.75;;;;;;;16.71;39.82;101429.19;5010573;28;20047;-76
2021/01/12 09:36:18;;;;;;;13.95;8.00;;;;;;;16.62;39.69;101433.91;5014867;28;20492;-75
2021/01/12 09:38:49;;;;;;;9.38;2.17;;;;;;;16.64;39.34;101435.22;5014905;28;20033;-76
2021/01/12 09:41:20;;;;;;;9.52;1.80;;;;;;;16.63;39.61;101441.06;5031792;28;20481;-75
2021/01/12 09:43:45;;;;;;;12.85;2.65;;;;;;;16.44;39.78;101451.75;5032805;28;20052;-82
2021/01/12 09:46:11;;;;;;;12.48;3.90;;;;;;;16.55;39.70;101453.78;5014997;28;20496;-78
2021/01/12 09:48:37;;;;;;;9.38;2.00;;;;;;;16.38;39.91;101460.22;5032223;28;20029;-74
2021/01/12 09:51:04;;;;;;;9.40;3.17;;;;;;;16.37;39.91;101471.59;5031212;28;20032;-77
2021/01/12 09:53:30;;;;;;;11.05;3.35;;;;;;;16.53;39.70;101472.59;5032424;28;20056;-75
2021/01/12 09:55:56;;;;;;;9.57;4.25;;;;;;;16.34;39.77;101481.34;5032411;28;20061;-76
2021/01/12 09:58:22;;;;;;;7.45;2.03;;;;;;;16.49;39.61;101487.44;5031496;28;20176;-77
2021/01/12 10:00:48;;;;;;;8.68;3.30;;;;;;;16.28;40.04;101496.47;5014475;28;20540;-76
2021/01/12 10:03:13;;;;;;;5.25;1.98;;;;;;;16.49;39.87;101501.22;5030020;28;20079;-76
2021/01/12 10:05:40;;;;;;;5.40;2.17;;;;;;;16.47;39.74;101507.03;5032407;28;20072;-84
2021/01/12 10:08:07;;;;;;;5.75;1.13;;;;;;;16.16;39.73;101506.56;5014894;28;20068;-75
2021/01/12 10:10:34;;;;;;;7.47;2.13;;;;;;;16.31;38.89;101515.09;5013559;28;20037;-78
2021/01/12 10:13:00;;;;;;;6.60;2.25;;;;;;;16.38;38.99;101525.59;5031485;28;20040;-76
2021/01/12 10:15:26;;;;;;;4.57;0.85;;;;;;;16.19;38.56;101528.00;5032301;28;20469;-76
2021/01/12 10:17:52;;;;;;;6.30;1.30;;;;;;;15.82;37.96;101527.66;5014460;28;20128;-75
2021/01/12 10:20:18;;;;;;;5.60;1.80;;;;;;;16.22;36.78;101522.59;5031469;28;20072;-76
2021/01/12 10:22:44;;;;;;;6.45;1.58;;;;;;;15.74;37.34;101528.47;5032041;28;20433;-74
2021/01/12 10:25:10;;;;;;;7.88;1.88;;;;;;;15.99;37.31;101533.09;5032155;28;20034;-77
2021/01/12 10:27:38;;;;;;;5.90;1.55;;;;;;;15.74;37.13;101545.00;5030211;28;20041;-76
2021/01/12 10:30:08;;;;;;;9.30;2.00;;;;;;;15.71;37.18;101540.16;5013318;28;20110;-75
2021/01/12 10:32:34;;;;;;;7.85;1.98;;;;;;;15.62;36.91;101545.69;5030296;28;20086;-76
2021/01/12 10:34:59;;;;;;;5.53;1.55;;;;;;;15.76;37.36;101545.47;5031900;28;20476;-75
2021/01/12 10:37:27;;;;;;;10.75;3.13;;;;;;;15.81;37.23;101539.81;5013447;28;20056;-78
2021/01/12 10:39:54;;;;;;;4.82;1.13;;;;;;;15.78;37.13;101538.50;5031966;28;20096;-76
2021/01/12 10:42:19;;;;;;;7.47;1.17;;;;;;;15.86;37.27;101547.88;5015447;28;20601;-79
2021/01/12 10:44:45;;;;;;;6.63;1.73;;;;;;;15.82;37.54;101552.44;5035579;28;20029;-75
2021/01/12 10:47:10;;;;;;;11.75;2.50;;;;;;;15.70;37.68;101550.34;5016913;28;20116;-75
2021/01/12 10:49:36;;;;;;;2.80;1.30;;;;;;;15.81;37.25;101553.59;5035086;28;20121;-75
2021/01/12 10:52:05;;;;;;;7.70;1.40;;;;;;;15.75;37.30;101557.66;5035570;28;20033;-75
2021/01/12 10:54:30;;;;;;;3.47;1.90;;;;;;;15.79;37.06;101564.09;5035384;28;20018;-75
2021/01/12 10:56:56;;;;;;;10.98;1.52;;;;;;;15.63;35.58;101565.78;5034774;28;20036;-86
2021/01/12 10:59:23;;;;;;;6.88;1.67;;;;;;;15.85;35.48;101564.75;5017578;28;20500;-78
2021/01/12 11:02:01;;;;;;;7.25;1.30;;;;;;;15.98;34.67;101563.75;5033733;28;20047;-75
2021/01/12 11:04:26;;;;;;;2.80;1.30;;;;;;;15.87;34.90;101567.97;5017591;28;20101;-75
2021/01/12 11:06:54;;;;;;;5.97;2.03;;;;;;;15.94;34.21;101579.31;5033638;28;20369;-75
2021/01/12 11:09:21;;;;;;;8.30;1.73;;;;;;;16.01;34.11;101574.91;5035303;28;20362;-75
2021/01/12 11:11:50;;;;;;;7.88;1.20;;;;;;;15.96;34.30;101572.34;5035259;28;20116;-75
2021/01/12 11:14:18;;;;;;;5.95;1.42;;;;;;;15.97;33.57;101579.47;5017433;28;20423;-74
2021/01/12 11:16:45;;;;;;;6.43;1.60;;;;;;;16.02;33.13;101579.31;5034256;28;20055;-75
2021/01/12 11:19:12;;;;;;;6.20;1.63;;;;;;;16.05;33.34;101581.38;5035043;28;20026;-75
2021/01/12 11:21:45;;;;;;;8.40;1.80;;;;;;;16.22;34.22;101583.28;5025389;28;20377;-75
2021/01/12 11:24:13;;;;;;;7.10;1.52;;;;;;;16.42;34.01;101587.25;5015532;28;20040;-78
2021/01/12 11:26:40;;;;;;;6.72;1.45;;;;;;;16.27;33.95;101590.56;5034489;28;20491;-75
2021/01/12 11:29:06;;;;;;;7.72;1.52;;;;;;;16.24;33.56;101583.75;5034969;28;20037;-80